sensor_id;sensor_type;location;lat;lon;timestamp;P1;durP1;ratioP1;P2;durP2;ratioP2
74920;SDS011;63483;47.384;8.860;2023-05-23T00:01:51;10.53;;;5.50;;
74920;SDS011;63483;47.384;8.860;2023-05-23T00:04:19;6.55;;;4.57;;
74920;SDS011;63483;47.384;8.860;2023-05-23T00:06:44;6.57;;;5.17;;
74920;SDS011;63483;47.384;8.860;2023-05-23T00:09:10;6.43;;;4.78;;
74920;SDS011;63483;47.384;8.860;2023-05-23T00:11:36;7.38;;;4.75;;
74920;SDS011;63483;47.384;8.860;2023-05-23T00:14:01;7.07;;;4.60;;
74920;SDS011;63483;47.384;8.860;2023-05-23T00:16:27;7.40;;;5.67;;
74920;SDS011;63483;47.384;8.860;2023-05-23T00:18:52;7.20;;;5.57;;
74920;SDS011;63483;47.384;8.860;2023-05-23T00:21:21;6.80;;;5.03;;
74920;SDS011;63483;47.384;8.860;2023-05-23T00:23:46;8.53;;;5.70;;
74920;SDS011;63483;47.384;8.860;2023-05-23T00:26:12;7.50;;;4.93;;
74920;SDS011;63483;47.384;8.860;2023-05-23T00:28:37;7.37;;;5.20;;
74920;SDS011;63483;47.384;8.860;2023-05-23T00:31:03;7.78;;;4.68;;
74920;SDS011;63483;47.384;8.860;2023-05-23T00:33:28;8.00;;;4.70;;
74920;SDS011;63483;47.384;8.860;2023-05-23T00:35:57;7.30;;;5.00;;
74920;SDS011;63483;47.384;8.860;2023-05-23T00:38:23;6.65;;;4.70;;
74920;SDS011;63483;47.384;8.860;2023-05-23T00:40:48;8.00;;;5.20;;
74920;SDS011;63483;47.384;8.860;2023-05-23T00:43:13;6.20;;;4.70;;
74920;SDS011;63483;47.384;8.860;2023-05-23T00:45:40;7.22;;;5.03;;
74920;SDS011;63483;47.384;8.860;2023-05-23T00:48:05;7.40;;;4.83;;
74920;SDS011;63483;47.384;8.860;2023-05-23T00:50:31;6.35;;;4.88;;
74920;SDS011;63483;47.384;8.860;2023-05-23T00:52:58;7.50;;;5.50;;
74920;SDS011;63483;47.384;8.860;2023-05-23T00:55:24;6.82;;;5.00;;
74920;SDS011;63483;47.384;8.860;2023-05-23T00:57:51;9.70;;;5.28;;
74920;SDS011;63483;47.384;8.860;2023-05-23T01:00:19;5.63;;;4.50;;
74920;SDS011;63483;47.384;8.860;2023-05-23T01:02:46;6.50;;;5.40;;
74920;SDS011;63483;47.384;8.860;2023-05-23T01:05:15;6.20;;;4.50;;
74920;SDS011;63483;47.384;8.860;2023-05-23T01:07:47;9.40;;;5.57;;
74920;SDS011;63483;47.384;8.860;2023-05-23T01:10:14;7.95;;;4.38;;
74920;SDS011;63483;47.384;8.860;2023-05-23T01:15:13;6.35;;;4.90;;
74920;SDS011;63483;47.384;8.860;2023-05-23T01:20:16;8.55;;;5.38;;
74920;SDS011;63483;47.384;8.860;2023-05-23T01:28:18;7.28;;;4.97;;
74920;SDS011;63483;47.384;8.860;2023-05-23T01:30:50;7.95;;;5.38;;
74920;SDS011;63483;47.384;8.860;2023-05-23T01:33:16;7.28;;;5.00;;
74920;SDS011;63483;47.384;8.860;2023-05-23T01:35:44;7.65;;;5.00;;
74920;SDS011;63483;47.384;8.860;2023-05-23T01:38:10;6.03;;;4.90;;
74920;SDS011;63483;47.384;8.860;2023-05-23T01:40:35;7.18;;;5.28;;
74920;SDS011;63483;47.384;8.860;2023-05-23T01:43:01;7.13;;;5.37;;
74920;SDS011;63483;47.384;8.860;2023-05-23T01:45:26;7.47;;;5.10;;
74920;SDS011;63483;47.384;8.860;2023-05-23T01:47:53;7.95;;;5.22;;
74920;SDS011;63483;47.384;8.860;2023-05-23T01:50:21;7.50;;;5.15;;
74920;SDS011;63483;47.384;8.860;2023-05-23T01:52:47;8.80;;;5.57;;
74920;SDS011;63483;47.384;8.860;2023-05-23T01:55:13;6.70;;;4.43;;
74920;SDS011;63483;47.384;8.860;2023-05-23T01:57:42;7.32;;;5.22;;
74920;SDS011;63483;47.384;8.860;2023-05-23T02:00:10;7.65;;;5.05;;
74920;SDS011;63483;47.384;8.860;2023-05-23T02:02:36;5.43;;;4.38;;
74920;SDS011;63483;47.384;8.860;2023-05-23T02:05:01;6.37;;;4.93;;
74920;SDS011;63483;47.384;8.860;2023-05-23T02:07:26;6.03;;;4.73;;
74920;SDS011;63483;47.384;8.860;2023-05-23T02:09:52;7.37;;;4.87;;
74920;SDS011;63483;47.384;8.860;2023-05-23T02:12:17;6.85;;;5.07;;
74920;SDS011;63483;47.384;8.860;2023-05-23T02:14:43;7.73;;;6.00;;
74920;SDS011;63483;47.384;8.860;2023-05-23T02:17:08;6.33;;;5.30;;
74920;SDS011;63483;47.384;8.860;2023-05-23T02:19:34;9.03;;;5.30;;
74920;SDS011;63483;47.384;8.860;2023-05-23T02:22:00;6.68;;;5.35;;
74920;SDS011;63483;47.384;8.860;2023-05-23T02:24:25;8.10;;;5.00;;
74920;SDS011;63483;47.384;8.860;2023-05-23T02:26:51;6.27;;;5.07;;
74920;SDS011;63483;47.384;8.860;2023-05-23T02:29:17;8.98;;;5.55;;
74920;SDS011;63483;47.384;8.860;2023-05-23T02:31:42;6.60;;;4.90;;
74920;SDS011;63483;47.384;8.860;2023-05-23T02:34:08;6.40;;;4.70;;
74920;SDS011;63483;47.384;8.860;2023-05-23T02:36:33;7.70;;;5.53;;
74920;SDS011;63483;47.384;8.860;2023-05-23T02:39:01;7.03;;;5.40;;
74920;SDS011;63483;47.384;8.860;2023-05-23T02:41:27;7.70;;;5.57;;
74920;SDS011;63483;47.384;8.860;2023-05-23T02:43:52;7.47;;;6.00;;
74920;SDS011;63483;47.384;8.860;2023-05-23T02:46:17;5.83;;;4.80;;
74920;SDS011;63483;47.384;8.860;2023-05-23T02:48:43;7.40;;;5.37;;
74920;SDS011;63483;47.384;8.860;2023-05-23T02:51:09;6.03;;;5.00;;
74920;SDS011;63483;47.384;8.860;2023-05-23T02:53:34;6.33;;;5.00;;
74920;SDS011;63483;47.384;8.860;2023-05-23T02:56:00;7.37;;;4.60;;
74920;SDS011;63483;47.384;8.860;2023-05-23T02:58:25;7.57;;;5.60;;
74920;SDS011;63483;47.384;8.860;2023-05-23T03:00:50;7.70;;;5.28;;
74920;SDS011;63483;47.384;8.860;2023-05-23T03:03:16;7.77;;;5.07;;
74920;SDS011;63483;47.384;8.860;2023-05-23T03:05:41;10.23;;;5.70;;
74920;SDS011;63483;47.384;8.860;2023-05-23T03:08:06;7.40;;;5.13;;
74920;SDS011;63483;47.384;8.860;2023-05-23T03:10:32;7.38;;;5.90;;
74920;SDS011;63483;47.384;8.860;2023-05-23T03:12:58;7.57;;;5.80;;
74920;SDS011;63483;47.384;8.860;2023-05-23T03:15:23;8.30;;;5.87;;
74920;SDS011;63483;47.384;8.860;2023-05-23T03:17:48;9.03;;;5.40;;
74920;SDS011;63483;47.384;8.860;2023-05-23T03:20:14;7.20;;;5.67;;
74920;SDS011;63483;47.384;8.860;2023-05-23T03:22:39;7.70;;;5.32;;
74920;SDS011;63483;47.384;8.860;2023-05-23T03:25:07;7.53;;;5.93;;
74920;SDS011;63483;47.384;8.860;2023-05-23T03:27:33;6.82;;;5.38;;
74920;SDS011;63483;47.384;8.860;2023-05-23T03:29:58;7.13;;;5.43;;
74920;SDS011;63483;47.384;8.860;2023-05-23T03:32:24;6.73;;;5.40;;
74920;SDS011;63483;47.384;8.860;2023-05-23T03:34:49;7.78;;;5.32;;
74920;SDS011;63483;47.384;8.860;2023-05-23T03:37:14;8.83;;;4.83;;
74920;SDS011;63483;47.384;8.860;2023-05-23T03:39:40;6.93;;;6.00;;
74920;SDS011;63483;47.384;8.860;2023-05-23T03:42:05;8.17;;;5.10;;
74920;SDS011;63483;47.384;8.860;2023-05-23T03:44:31;7.90;;;5.78;;
74920;SDS011;63483;47.384;8.860;2023-05-23T03:46:56;8.00;;;5.47;;
74920;SDS011;63483;47.384;8.860;2023-05-23T03:49:22;6.90;;;5.20;;
74920;SDS011;63483;47.384;8.860;2023-05-23T03:51:47;6.17;;;5.27;;
74920;SDS011;63483;47.384;8.860;2023-05-23T03:54:12;7.00;;;5.40;;
74920;SDS011;63483;47.384;8.860;2023-05-23T03:56:38;7.22;;;5.97;;
74920;SDS011;63483;47.384;8.860;2023-05-23T03:59:03;6.70;;;5.20;;
74920;SDS011;63483;47.384;8.860;2023-05-23T04:01:28;7.07;;;5.80;;
74920;SDS011;63483;47.384;8.860;2023-05-23T04:03:54;7.13;;;5.30;;
74920;SDS011;63483;47.384;8.860;2023-05-23T04:06:19;8.53;;;5.50;;
74920;SDS011;63483;47.384;8.860;2023-05-23T04:08:45;8.27;;;5.87;;
74920;SDS011;63483;47.384;8.860;2023-05-23T04:11:10;7.30;;;5.57;;
74920;SDS011;63483;47.384;8.860;2023-05-23T04:13:35;7.70;;;6.07;;
74920;SDS011;63483;47.384;8.860;2023-05-23T04:16:01;7.37;;;5.63;;
74920;SDS011;63483;47.384;8.860;2023-05-23T04:18:29;7.50;;;6.03;;
74920;SDS011;63483;47.384;8.860;2023-05-23T04:20:57;7.87;;;5.33;;
74920;SDS011;63483;47.384;8.860;2023-05-23T04:23:22;7.72;;;5.38;;
74920;SDS011;63483;47.384;8.860;2023-05-23T04:25:48;7.97;;;6.20;;
74920;SDS011;63483;47.384;8.860;2023-05-23T04:28:13;7.57;;;6.30;;
74920;SDS011;63483;47.384;8.860;2023-05-23T04:30:41;7.85;;;5.97;;
74920;SDS011;63483;47.384;8.860;2023-05-23T04:33:07;7.60;;;6.13;;
74920;SDS011;63483;47.384;8.860;2023-05-23T04:35:32;9.20;;;6.27;;
74920;SDS011;63483;47.384;8.860;2023-05-23T04:37:58;10.63;;;6.67;;
74920;SDS011;63483;47.384;8.860;2023-05-23T04:40:23;8.85;;;6.60;;
74920;SDS011;63483;47.384;8.860;2023-05-23T04:42:49;7.53;;;5.47;;
74920;SDS011;63483;47.384;8.860;2023-05-23T04:45:16;7.43;;;6.28;;
74920;SDS011;63483;47.384;8.860;2023-05-23T04:47:43;7.55;;;5.70;;
74920;SDS011;63483;47.384;8.860;2023-05-23T04:50:09;7.83;;;6.50;;
74920;SDS011;63483;47.384;8.860;2023-05-23T04:52:35;9.68;;;5.88;;
74920;SDS011;63483;47.384;8.860;2023-05-23T04:55:00;8.07;;;6.23;;
74920;SDS011;63483;47.384;8.860;2023-05-23T04:57:26;7.63;;;5.60;;
74920;SDS011;63483;47.384;8.860;2023-05-23T04:59:51;7.90;;;5.77;;
74920;SDS011;63483;47.384;8.860;2023-05-23T05:02:17;8.87;;;6.00;;
74920;SDS011;63483;47.384;8.860;2023-05-23T05:04:43;7.68;;;5.82;;
74920;SDS011;63483;47.384;8.860;2023-05-23T05:07:08;8.90;;;6.10;;
74920;SDS011;63483;47.384;8.860;2023-05-23T05:09:34;10.00;;;6.33;;
74920;SDS011;63483;47.384;8.860;2023-05-23T05:11:59;8.25;;;5.85;;
74920;SDS011;63483;47.384;8.860;2023-05-23T05:14:25;7.90;;;5.67;;
74920;SDS011;63483;47.384;8.860;2023-05-23T05:16:51;8.25;;;6.38;;
74920;SDS011;63483;47.384;8.860;2023-05-23T05:19:18;7.87;;;5.83;;
74920;SDS011;63483;47.384;8.860;2023-05-23T05:21:44;7.88;;;6.57;;
74920;SDS011;63483;47.384;8.860;2023-05-23T05:24:10;8.37;;;6.07;;
74920;SDS011;63483;47.384;8.860;2023-05-23T05:26:36;10.07;;;6.85;;
74920;SDS011;63483;47.384;8.860;2023-05-23T05:29:01;8.60;;;5.70;;
74920;SDS011;63483;47.384;8.860;2023-05-23T05:31:27;7.82;;;6.03;;
74920;SDS011;63483;47.384;8.860;2023-05-23T05:33:53;8.57;;;6.87;;
74920;SDS011;63483;47.384;8.860;2023-05-23T05:36:19;9.98;;;6.00;;
74920;SDS011;63483;47.384;8.860;2023-05-23T05:38:44;8.97;;;6.37;;
74920;SDS011;63483;47.384;8.860;2023-05-23T05:41:10;8.47;;;6.30;;
74920;SDS011;63483;47.384;8.860;2023-05-23T05:43:35;8.87;;;6.20;;
74920;SDS011;63483;47.384;8.860;2023-05-23T05:46:00;9.60;;;6.35;;
74920;SDS011;63483;47.384;8.860;2023-05-23T05:48:28;7.97;;;6.00;;
74920;SDS011;63483;47.384;8.860;2023-05-23T05:50:54;9.80;;;6.65;;
74920;SDS011;63483;47.384;8.860;2023-05-23T05:53:19;9.30;;;6.37;;
74920;SDS011;63483;47.384;8.860;2023-05-23T05:55:45;9.43;;;7.07;;
74920;SDS011;63483;47.384;8.860;2023-05-23T05:58:10;9.83;;;6.87;;
74920;SDS011;63483;47.384;8.860;2023-05-23T06:00:35;9.85;;;6.57;;
74920;SDS011;63483;47.384;8.860;2023-05-23T06:03:06;10.17;;;6.60;;
74920;SDS011;63483;47.384;8.860;2023-05-23T06:05:32;9.82;;;7.22;;
74920;SDS011;63483;47.384;8.860;2023-05-23T06:07:58;13.30;;;6.60;;
74920;SDS011;63483;47.384;8.860;2023-05-23T06:10:23;11.80;;;6.78;;
74920;SDS011;63483;47.384;8.860;2023-05-23T06:12:49;9.73;;;7.80;;
74920;SDS011;63483;47.384;8.860;2023-05-23T06:15:14;11.97;;;8.73;;
74920;SDS011;63483;47.384;8.860;2023-05-23T06:17:40;10.73;;;7.80;;
74920;SDS011;63483;47.384;8.860;2023-05-23T06:20:05;10.02;;;8.07;;
74920;SDS011;63483;47.384;8.860;2023-05-23T06:22:32;12.20;;;8.10;;
74920;SDS011;63483;47.384;8.860;2023-05-23T06:24:57;10.53;;;7.27;;
74920;SDS011;63483;47.384;8.860;2023-05-23T06:27:23;10.33;;;7.90;;
74920;SDS011;63483;47.384;8.860;2023-05-23T06:29:48;11.80;;;7.85;;
74920;SDS011;63483;47.384;8.860;2023-05-23T06:32:14;11.33;;;7.73;;
74920;SDS011;63483;47.384;8.860;2023-05-23T06:34:39;11.80;;;8.88;;
74920;SDS011;63483;47.384;8.860;2023-05-23T06:37:05;11.67;;;8.67;;
74920;SDS011;63483;47.384;8.860;2023-05-23T06:39:30;12.63;;;8.50;;
74920;SDS011;63483;47.384;8.860;2023-05-23T06:41:56;13.43;;;7.90;;
74920;SDS011;63483;47.384;8.860;2023-05-23T06:44:21;15.47;;;11.73;;
74920;SDS011;63483;47.384;8.860;2023-05-23T06:46:47;14.48;;;10.90;;
74920;SDS011;63483;47.384;8.860;2023-05-23T06:49:13;23.00;;;14.40;;
74920;SDS011;63483;47.384;8.860;2023-05-23T06:51:39;21.55;;;13.65;;
74920;SDS011;63483;47.384;8.860;2023-05-23T06:54:04;21.10;;;15.00;;
74920;SDS011;63483;47.384;8.860;2023-05-23T06:56:30;19.40;;;13.40;;
74920;SDS011;63483;47.384;8.860;2023-05-23T06:58:55;16.30;;;11.27;;
74920;SDS011;63483;47.384;8.860;2023-05-23T07:01:21;18.60;;;13.70;;
74920;SDS011;63483;47.384;8.860;2023-05-23T07:03:46;22.70;;;15.23;;
74920;SDS011;63483;47.384;8.860;2023-05-23T07:06:11;26.47;;;15.70;;
74920;SDS011;63483;47.384;8.860;2023-05-23T07:08:37;25.20;;;15.97;;
74920;SDS011;63483;47.384;8.860;2023-05-23T07:11:03;25.17;;;16.98;;
74920;SDS011;63483;47.384;8.860;2023-05-23T07:13:29;25.85;;;16.05;;
74920;SDS011;63483;47.384;8.860;2023-05-23T07:15:54;25.47;;;16.67;;
74920;SDS011;63483;47.384;8.860;2023-05-23T07:18:20;24.00;;;15.97;;
74920;SDS011;63483;47.384;8.860;2023-05-23T07:20:46;25.27;;;16.85;;
74920;SDS011;63483;47.384;8.860;2023-05-23T07:23:11;28.77;;;17.33;;
74920;SDS011;63483;47.384;8.860;2023-05-23T07:25:36;26.03;;;17.33;;
74920;SDS011;63483;47.384;8.860;2023-05-23T07:28:04;25.77;;;17.42;;
74920;SDS011;63483;47.384;8.860;2023-05-23T07:30:29;29.93;;;18.20;;
74920;SDS011;63483;47.384;8.860;2023-05-23T07:32:55;26.23;;;17.07;;
74920;SDS011;63483;47.384;8.860;2023-05-23T07:35:20;26.13;;;17.02;;
74920;SDS011;63483;47.384;8.860;2023-05-23T07:37:50;25.43;;;16.47;;
74920;SDS011;63483;47.384;8.860;2023-05-23T07:40:16;26.85;;;17.00;;
74920;SDS011;63483;47.384;8.860;2023-05-23T07:42:41;26.73;;;17.70;;
74920;SDS011;63483;47.384;8.860;2023-05-23T07:45:07;27.95;;;18.05;;
74920;SDS011;63483;47.384;8.860;2023-05-23T07:47:32;30.83;;;18.10;;
74920;SDS011;63483;47.384;8.860;2023-05-23T07:49:57;26.20;;;17.00;;
74920;SDS011;63483;47.384;8.860;2023-05-23T07:52:26;26.67;;;17.15;;
74920;SDS011;63483;47.384;8.860;2023-05-23T07:54:51;27.27;;;17.23;;
74920;SDS011;63483;47.384;8.860;2023-05-23T07:57:17;27.08;;;17.65;;
74920;SDS011;63483;47.384;8.860;2023-05-23T07:59:42;25.83;;;17.03;;
74920;SDS011;63483;47.384;8.860;2023-05-23T08:02:07;29.53;;;16.73;;
74920;SDS011;63483;47.384;8.860;2023-05-23T08:04:33;25.20;;;16.27;;
74920;SDS011;63483;47.384;8.860;2023-05-23T08:06:58;24.83;;;16.53;;
74920;SDS011;63483;47.384;8.860;2023-05-23T08:09:25;27.75;;;17.02;;
74920;SDS011;63483;47.384;8.860;2023-05-23T08:11:51;28.93;;;18.00;;
74920;SDS011;63483;47.384;8.860;2023-05-23T08:14:16;25.17;;;16.08;;
74920;SDS011;63483;47.384;8.860;2023-05-23T08:16:41;23.60;;;16.50;;
74920;SDS011;63483;47.384;8.860;2023-05-23T08:19:07;22.77;;;15.77;;
74920;SDS011;63483;47.384;8.860;2023-05-23T08:21:33;22.23;;;15.57;;
74920;SDS011;63483;47.384;8.860;2023-05-23T08:24:00;21.20;;;14.85;;
74920;SDS011;63483;47.384;8.860;2023-05-23T08:26:26;21.88;;;15.10;;
74920;SDS011;63483;47.384;8.860;2023-05-23T08:28:52;21.20;;;14.77;;
74920;SDS011;63483;47.384;8.860;2023-05-23T08:31:17;22.97;;;15.43;;
74920;SDS011;63483;47.384;8.860;2023-05-23T08:33:42;24.10;;;16.38;;
74920;SDS011;63483;47.384;8.860;2023-05-23T08:36:08;23.20;;;15.43;;
74920;SDS011;63483;47.384;8.860;2023-05-23T08:38:34;24.48;;;15.52;;
74920;SDS011;63483;47.384;8.860;2023-05-23T08:41:00;23.93;;;16.17;;
74920;SDS011;63483;47.384;8.860;2023-05-23T08:43:26;22.17;;;15.18;;
74920;SDS011;63483;47.384;8.860;2023-05-23T08:45:52;23.23;;;15.53;;
74920;SDS011;63483;47.384;8.860;2023-05-23T08:48:20;24.10;;;17.02;;
74920;SDS011;63483;47.384;8.860;2023-05-23T08:50:47;24.83;;;15.93;;
74920;SDS011;63483;47.384;8.860;2023-05-23T08:53:16;23.50;;;16.67;;
74920;SDS011;63483;47.384;8.860;2023-05-23T08:55:45;21.83;;;14.98;;
74920;SDS011;63483;47.384;8.860;2023-05-23T08:58:12;25.88;;;16.92;;
74920;SDS011;63483;47.384;8.860;2023-05-23T09:00:38;24.17;;;15.75;;
74920;SDS011;63483;47.384;8.860;2023-05-23T09:03:04;23.97;;;15.83;;
74920;SDS011;63483;47.384;8.860;2023-05-23T09:05:30;20.90;;;14.95;;
74920;SDS011;63483;47.384;8.860;2023-05-23T09:07:55;23.07;;;15.03;;
74920;SDS011;63483;47.384;8.860;2023-05-23T09:10:21;24.07;;;15.97;;
74920;SDS011;63483;47.384;8.860;2023-05-23T09:12:46;23.30;;;15.43;;
74920;SDS011;63483;47.384;8.860;2023-05-23T09:15:12;22.47;;;15.53;;
74920;SDS011;63483;47.384;8.860;2023-05-23T09:17:38;22.05;;;15.05;;
74920;SDS011;63483;47.384;8.860;2023-05-23T09:20:09;21.77;;;15.25;;
74920;SDS011;63483;47.384;8.860;2023-05-23T09:22:38;22.97;;;15.50;;
74920;SDS011;63483;47.384;8.860;2023-05-23T09:25:03;22.25;;;14.63;;
74920;SDS011;63483;47.384;8.860;2023-05-23T09:27:29;22.55;;;15.18;;
74920;SDS011;63483;47.384;8.860;2023-05-23T09:29:55;22.00;;;14.80;;
74920;SDS011;63483;47.384;8.860;2023-05-23T09:32:20;23.47;;;15.77;;
74920;SDS011;63483;47.384;8.860;2023-05-23T09:37:15;20.27;;;14.80;;
74920;SDS011;63483;47.384;8.860;2023-05-23T09:39:44;21.50;;;14.75;;
74920;SDS011;63483;47.384;8.860;2023-05-23T09:42:11;22.20;;;14.77;;
74920;SDS011;63483;47.384;8.860;2023-05-23T09:44:40;23.33;;;14.97;;
74920;SDS011;63483;47.384;8.860;2023-05-23T09:47:06;19.58;;;14.32;;
74920;SDS011;63483;47.384;8.860;2023-05-23T09:49:31;22.47;;;14.63;;
74920;SDS011;63483;47.384;8.860;2023-05-23T09:51:57;18.93;;;13.87;;
74920;SDS011;63483;47.384;8.860;2023-05-23T09:54:23;19.77;;;14.23;;
74920;SDS011;63483;47.384;8.860;2023-05-23T09:56:48;19.87;;;13.97;;
74920;SDS011;63483;47.384;8.860;2023-05-23T09:59:16;21.30;;;14.23;;
74920;SDS011;63483;47.384;8.860;2023-05-23T10:01:49;19.95;;;13.52;;
74920;SDS011;63483;47.384;8.860;2023-05-23T10:04:17;17.58;;;12.57;;
74920;SDS011;63483;47.384;8.860;2023-05-23T10:06:49;15.80;;;11.27;;
74920;SDS011;63483;47.384;8.860;2023-05-23T10:09:19;19.27;;;13.13;;
74920;SDS011;63483;47.384;8.860;2023-05-23T10:14:21;19.55;;;14.60;;
74920;SDS011;63483;47.384;8.860;2023-05-23T10:19:22;22.52;;;15.38;;
74920;SDS011;63483;47.384;8.860;2023-05-23T10:22:09;19.70;;;14.75;;
74920;SDS011;63483;47.384;8.860;2023-05-23T10:24:36;19.60;;;14.40;;
74920;SDS011;63483;47.384;8.860;2023-05-23T10:27:02;18.88;;;13.20;;
74920;SDS011;63483;47.384;8.860;2023-05-23T10:29:28;20.90;;;14.13;;
74920;SDS011;63483;47.384;8.860;2023-05-23T10:31:55;18.48;;;13.95;;
74920;SDS011;63483;47.384;8.860;2023-05-23T10:37:04;20.27;;;13.75;;
74920;SDS011;63483;47.384;8.860;2023-05-23T10:42:19;17.88;;;13.85;;
74920;SDS011;63483;47.384;8.860;2023-05-23T10:45:15;20.27;;;13.98;;
74920;SDS011;63483;47.384;8.860;2023-05-23T10:47:45;18.77;;;14.30;;
74920;SDS011;63483;47.384;8.860;2023-05-23T10:50:13;19.27;;;14.23;;
74920;SDS011;63483;47.384;8.860;2023-05-23T10:52:54;21.05;;;14.77;;
74920;SDS011;63483;47.384;8.860;2023-05-23T10:55:20;19.73;;;15.00;;
74920;SDS011;63483;47.384;8.860;2023-05-23T10:57:46;18.30;;;14.15;;
74920;SDS011;63483;47.384;8.860;2023-05-23T11:00:34;17.25;;;12.77;;
74920;SDS011;63483;47.384;8.860;2023-05-23T11:02:59;19.13;;;14.63;;
74920;SDS011;63483;47.384;8.860;2023-05-23T11:05:29;18.90;;;14.02;;
74920;SDS011;63483;47.384;8.860;2023-05-23T11:08:10;18.83;;;14.27;;
74920;SDS011;63483;47.384;8.860;2023-05-23T11:10:52;18.70;;;13.90;;
74920;SDS011;63483;47.384;8.860;2023-05-23T11:13:24;16.60;;;12.60;;
74920;SDS011;63483;47.384;8.860;2023-05-23T11:16:22;18.08;;;12.93;;
74920;SDS011;63483;47.384;8.860;2023-05-23T11:21:43;15.93;;;12.85;;
74920;SDS011;63483;47.384;8.860;2023-05-23T11:24:19;15.47;;;12.57;;
74920;SDS011;63483;47.384;8.860;2023-05-23T11:26:51;15.68;;;11.98;;
74920;SDS011;63483;47.384;8.860;2023-05-23T11:29:28;17.13;;;12.07;;
74920;SDS011;63483;47.384;8.860;2023-05-23T11:31:54;15.35;;;11.60;;
74920;SDS011;63483;47.384;8.860;2023-05-23T11:34:20;16.52;;;12.10;;
74920;SDS011;63483;47.384;8.860;2023-05-23T11:36:46;15.10;;;11.30;;
74920;SDS011;63483;47.384;8.860;2023-05-23T11:39:16;14.45;;;10.82;;
74920;SDS011;63483;47.384;8.860;2023-05-23T11:41:43;13.80;;;10.93;;
74920;SDS011;63483;47.384;8.860;2023-05-23T11:44:11;15.20;;;11.07;;
74920;SDS011;63483;47.384;8.860;2023-05-23T11:46:37;13.67;;;10.93;;
74920;SDS011;63483;47.384;8.860;2023-05-23T11:49:09;13.88;;;10.02;;
74920;SDS011;63483;47.384;8.860;2023-05-23T11:51:35;13.45;;;11.13;;
74920;SDS011;63483;47.384;8.860;2023-05-23T11:54:01;12.87;;;10.23;;
74920;SDS011;63483;47.384;8.860;2023-05-23T11:56:26;18.17;;;11.10;;
74920;SDS011;63483;47.384;8.860;2023-05-23T11:58:51;17.33;;;11.85;;
74920;SDS011;63483;47.384;8.860;2023-05-23T12:01:21;15.70;;;11.30;;
74920;SDS011;63483;47.384;8.860;2023-05-23T12:03:47;15.65;;;11.80;;
74920;SDS011;63483;47.384;8.860;2023-05-23T12:06:14;15.47;;;12.33;;
74920;SDS011;63483;47.384;8.860;2023-05-23T12:08:40;16.83;;;11.80;;
74920;SDS011;63483;47.384;8.860;2023-05-23T12:11:05;15.77;;;12.37;;
74920;SDS011;63483;47.384;8.860;2023-05-23T12:13:32;16.92;;;12.35;;
74920;SDS011;63483;47.384;8.860;2023-05-23T12:15:58;13.60;;;11.23;;
74920;SDS011;63483;47.384;8.860;2023-05-23T12:18:26;17.27;;;12.43;;
74920;SDS011;63483;47.384;8.860;2023-05-23T12:20:53;15.85;;;12.15;;
74920;SDS011;63483;47.384;8.860;2023-05-23T12:23:22;14.33;;;11.07;;
74920;SDS011;63483;47.384;8.860;2023-05-23T12:25:51;13.65;;;10.10;;
74920;SDS011;63483;47.384;8.860;2023-05-23T12:28:18;14.60;;;11.20;;
74920;SDS011;63483;47.384;8.860;2023-05-23T12:30:44;14.60;;;10.67;;
74920;SDS011;63483;47.384;8.860;2023-05-23T12:33:10;15.95;;;11.13;;
74920;SDS011;63483;47.384;8.860;2023-05-23T12:35:36;14.93;;;10.85;;
74920;SDS011;63483;47.384;8.860;2023-05-23T12:38:01;16.63;;;11.60;;
74920;SDS011;63483;47.384;8.860;2023-05-23T12:40:30;16.05;;;12.65;;
74920;SDS011;63483;47.384;8.860;2023-05-23T12:42:56;14.50;;;10.90;;
74920;SDS011;63483;47.384;8.860;2023-05-23T12:45:22;17.27;;;12.80;;
74920;SDS011;63483;47.384;8.860;2023-05-23T12:48:07;16.25;;;11.10;;
74920;SDS011;63483;47.384;8.860;2023-05-23T12:50:32;19.00;;;13.07;;
74920;SDS011;63483;47.384;8.860;2023-05-23T12:52:58;16.92;;;12.50;;
74920;SDS011;63483;47.384;8.860;2023-05-23T12:55:24;18.93;;;12.77;;
74920;SDS011;63483;47.384;8.860;2023-05-23T12:57:49;15.13;;;10.60;;
74920;SDS011;63483;47.384;8.860;2023-05-23T13:00:15;17.17;;;11.88;;
74920;SDS011;63483;47.384;8.860;2023-05-23T13:02:41;15.50;;;11.10;;
74920;SDS011;63483;47.384;8.860;2023-05-23T13:05:06;18.03;;;9.80;;
74920;SDS011;63483;47.384;8.860;2023-05-23T13:07:32;14.63;;;9.37;;
74920;SDS011;63483;47.384;8.860;2023-05-23T13:09:58;15.40;;;9.67;;
74920;SDS011;63483;47.384;8.860;2023-05-23T13:12:23;14.13;;;9.33;;
74920;SDS011;63483;47.384;8.860;2023-05-23T13:14:49;16.80;;;9.68;;
74920;SDS011;63483;47.384;8.860;2023-05-23T13:17:15;15.27;;;9.70;;
74920;SDS011;63483;47.384;8.860;2023-05-23T13:19:40;15.40;;;9.43;;
74920;SDS011;63483;47.384;8.860;2023-05-23T13:22:06;18.47;;;10.10;;
74920;SDS011;63483;47.384;8.860;2023-05-23T13:24:34;14.23;;;9.45;;
74920;SDS011;63483;47.384;8.860;2023-05-23T13:27:04;15.70;;;9.23;;
74920;SDS011;63483;47.384;8.860;2023-05-23T13:29:30;17.63;;;9.60;;
74920;SDS011;63483;47.384;8.860;2023-05-23T13:31:57;13.17;;;8.53;;
74920;SDS011;63483;47.384;8.860;2023-05-23T13:34:23;14.13;;;8.32;;
74920;SDS011;63483;47.384;8.860;2023-05-23T13:36:49;13.40;;;8.48;;
74920;SDS011;63483;47.384;8.860;2023-05-23T13:39:14;13.37;;;7.60;;
74920;SDS011;63483;47.384;8.860;2023-05-23T13:41:40;11.20;;;7.20;;
74920;SDS011;63483;47.384;8.860;2023-05-23T13:44:05;12.00;;;7.90;;
74920;SDS011;63483;47.384;8.860;2023-05-23T13:46:30;12.57;;;8.05;;
74920;SDS011;63483;47.384;8.860;2023-05-23T13:48:56;13.20;;;7.47;;
74920;SDS011;63483;47.384;8.860;2023-05-23T13:51:21;12.47;;;6.10;;
74920;SDS011;63483;47.384;8.860;2023-05-23T13:53:46;10.20;;;7.30;;
74920;SDS011;63483;47.384;8.860;2023-05-23T13:56:13;11.27;;;7.20;;
74920;SDS011;63483;47.384;8.860;2023-05-23T13:58:39;10.15;;;6.85;;
74920;SDS011;63483;47.384;8.860;2023-05-23T14:01:04;11.90;;;6.30;;
74920;SDS011;63483;47.384;8.860;2023-05-23T14:03:29;10.90;;;6.40;;
74920;SDS011;63483;47.384;8.860;2023-05-23T14:05:55;9.73;;;6.40;;
74920;SDS011;63483;47.384;8.860;2023-05-23T14:08:20;11.70;;;6.45;;
74920;SDS011;63483;47.384;8.860;2023-05-23T14:10:46;9.00;;;5.83;;
74920;SDS011;63483;47.384;8.860;2023-05-23T14:13:11;8.70;;;6.07;;
74920;SDS011;63483;47.384;8.860;2023-05-23T14:15:36;10.33;;;6.43;;
74920;SDS011;63483;47.384;8.860;2023-05-23T14:18:02;8.63;;;5.67;;
74920;SDS011;63483;47.384;8.860;2023-05-23T14:20:28;11.00;;;6.90;;
74920;SDS011;63483;47.384;8.860;2023-05-23T14:22:54;13.63;;;7.85;;
74920;SDS011;63483;47.384;8.860;2023-05-23T14:25:19;13.07;;;7.00;;
74920;SDS011;63483;47.384;8.860;2023-05-23T14:27:45;12.65;;;6.95;;
74920;SDS011;63483;47.384;8.860;2023-05-23T14:30:10;9.80;;;6.00;;
74920;SDS011;63483;47.384;8.860;2023-05-23T14:32:36;11.20;;;6.50;;
74920;SDS011;63483;47.384;8.860;2023-05-23T14:35:06;11.82;;;7.63;;
74920;SDS011;63483;47.384;8.860;2023-05-23T14:37:33;11.27;;;6.97;;
74920;SDS011;63483;47.384;8.860;2023-05-23T14:39:59;9.77;;;6.70;;
74920;SDS011;63483;47.384;8.860;2023-05-23T14:42:24;12.90;;;6.80;;
74920;SDS011;63483;47.384;8.860;2023-05-23T14:44:51;11.33;;;6.97;;
74920;SDS011;63483;47.384;8.860;2023-05-23T14:47:17;10.10;;;7.10;;
74920;SDS011;63483;47.384;8.860;2023-05-23T14:49:42;10.97;;;7.30;;
74920;SDS011;63483;47.384;8.860;2023-05-23T14:52:08;12.70;;;7.70;;
74920;SDS011;63483;47.384;8.860;2023-05-23T14:54:33;12.23;;;7.10;;
74920;SDS011;63483;47.384;8.860;2023-05-23T14:56:58;10.57;;;7.53;;